sensor_id;sensor_type;location;lat;lon;timestamp;pressure;altitude;pressure_sealevel;temperature;humidity
61740;BME280;47645;45.288;12.038;2023-07-29T00:03:35;1012.1342624263027;;;24.2603515625;79.11022269961447
61740;BME280;47645;45.288;12.038;2023-07-29T00:13:36;1012.1993311389928;;;23.5111328125;90.92431474694673
61740;BME280;47645;45.288;12.038;2023-07-29T00:23:38;1011.9684234053775;;;23.77109375;79.03917221670302
61740;BME280;47645;45.288;12.038;2023-07-29T00:33:39;1012.0962663940875;;;23.261328125;90.58313861927697
61740;BME280;47645;45.288;12.038;2023-07-29T00:43:41;1012.0842548788903;;;23.5875;90.8497302410067
61740;BME280;47645;45.288;12.038;2023-07-29T00:53:42;1012.1359413210146;;;23.5162109375;82.43452868191133
61740;BME280;47645;45.288;12.038;2023-07-29T01:03:46;1012.0155694434118;;;23.3939453125;80.56109930866194
61740;BME280;47645;45.288;12.038;2023-07-29T01:13:49;1012.0041458785282;;;23.592578125;78.6011894687632
61740;BME280;47645;45.288;12.038;2023-07-29T01:23:46;1011.8669535315092;;;23.658984375;76.9423413912942
61740;BME280;47645;45.288;12.038;2023-07-29T01:34:04;1011.8771451326735;;;23.689453125;76.21319017193012
61740;BME280;47645;45.288;12.038;2023-07-29T01:43:50;1011.8974532390642;;;23.546875;77.13341003227303
61740;BME280;47645;45.288;12.038;2023-07-29T01:53:51;1011.8526859987803;;;23.475390625;78.73498685072626
61740;BME280;47645;45.288;12.038;2023-07-29T02:03:55;1011.7837612725402;;;23.4142578125;77.29326696084281
61740;BME280;47645;45.288;12.038;2023-07-29T02:13:54;1011.8662757472489;;;23.241015625;78.66836900038523
61740;BME280;47645;45.288;12.038;2023-07-29T02:23:55;1011.9625413592906;;;23.2306640625;77.5484404591515
61740;BME280;47645;45.288;12.038;2023-07-29T02:33:57;1011.9726806293464;;;23.1951171875;78.34410961722021
61740;BME280;47645;45.288;12.038;2023-07-29T02:43:58;1011.9771614163749;;;23.0880859375;79.1007328602467
61740;BME280;47645;45.288;12.038;2023-07-29T02:53:59;1011.9782868866887;;;22.950390625;78.75773048292545
61740;BME280;47645;45.288;12.038;2023-07-29T03:04:01;1012.0101849784246;;;22.9453125;84.8090673352001
61740;BME280;47645;45.288;12.038;2023-07-29T03:14:02;1012.0549832124935;;;22.64453125;93.00437111956408
61740;BME280;47645;45.288;12.038;2023-07-29T03:24:04;1012.0602095769319;;;22.659765625;80.63692685277411
61740;BME280;47645;45.288;12.038;2023-07-29T03:34:05;1012.0775727508866;;;22.5833984375;86.68115638006573
61740;BME280;47645;45.288;12.038;2023-07-29T03:44:06;1012.2165545388613;;;22.72109375;78.84074372161265
61740;BME280;47645;45.288;12.038;2023-07-29T03:54:08;1012.2484520058537;;;22.5681640625;84.97138707590759
61740;BME280;47645;45.288;12.038;2023-07-29T04:04:09;1012.2929091910253;;;22.43046875;91.9524666555353
61740;BME280;47645;45.288;12.038;2023-07-29T04:14:10;1012.2509338771206;;;22.1908203125;100
61740;BME280;47645;45.288;12.038;2023-07-29T04:24:12;1012.4567941311803;;;22.35390625;100
61740;BME280;47645;45.288;12.038;2023-07-29T04:34:13;1012.6052183608714;;;22.415234375;100
61740;BME280;47645;45.288;12.038;2023-07-29T04:44:15;1012.5852571900343;;;22.8994140625;100
61740;BME280;47645;45.288;12.038;2023-07-29T04:54:16;1012.6422171181295;;;23.28671875;100
61740;BME280;47645;45.288;12.038;2023-07-29T05:04:17;1012.5945795425605;;;23.2306640625;95.99627752051664
61740;BME280;47645;45.288;12.038;2023-07-29T05:14:19;1012.6673118299962;;;23.2970703125;100
61740;BME280;47645;45.288;12.038;2023-07-29T05:24:20;1012.7984180848148;;;23.281640625;88.70104178918535
61740;BME280;47645;45.288;12.038;2023-07-29T05:34:22;1012.7653559998165;;;23.5162109375;95.89892850956205
61740;BME280;47645;45.288;12.038;2023-07-29T05:44:23;1012.5842740191049;;;23.546875;94.2706579950476
61740;BME280;47645;45.288;12.038;2023-07-29T05:54:25;1012.766716452214;;;23.46015625;100
61740;BME280;47645;45.288;12.038;2023-07-29T06:04:26;1012.7558534186718;;;23.7150390625;99.77556983974216
61740;BME280;47645;45.288;12.038;2023-07-29T06:14:27;1012.917664259874;;;23.8578125;90.32593317049708
61740;BME280;47645;45.288;12.038;2023-07-29T06:24:29;1012.9787474455837;;;24.1890625;100
61740;BME280;47645;45.288;12.038;2023-07-29T06:34:30;1012.9670656244875;;;24.4439453125;100
61740;BME280;47645;45.288;12.038;2023-07-29T06:44:32;1012.9262098915937;;;24.8466796875;99.66806636634915
61740;BME280;47645;45.288;12.038;2023-07-29T06:54:33;1012.9695006608329;;;25.2697265625;97.77617122411401
61740;BME280;47645;45.288;12.038;2023-07-29T07:04:34;1012.9880773990487;;;25.61640625;95.46131922982212
61740;BME280;47645;45.288;12.038;2023-07-29T07:14:36;1013.0040479342371;;;25.728515625;94.14731632641147
61740;BME280;47645;45.288;12.038;2023-07-29T07:24:37;1012.9279992530626;;;25.9884765625;95.05835788049042
61740;BME280;47645;45.288;12.038;2023-07-29T07:34:39;1012.946136526142;;;26.4013671875;95.46847522698238
61740;BME280;47645;45.288;12.038;2023-07-29T07:44:40;1012.932821014793;;;26.6154296875;92.44722205673284
61740;BME280;47645;45.288;12.038;2023-07-29T07:54:42;1012.9803612375946;;;26.9060546875;91.8388892394527
61740;BME280;47645;45.288;12.038;2023-07-29T08:04:43;1012.9254778496678;;;27.2373046875;88.62994870233088
61740;BME280;47645;45.288;12.038;2023-07-29T08:14:45;1012.834408764027;;;27.5228515625;84.95340793169223
61740;BME280;47645;45.288;12.038;2023-07-29T08:24:46;1012.8196841031247;;;27.9255859375;84.80265515248816
61740;BME280;47645;45.288;12.038;2023-07-29T08:34:48;1012.7614698356109;;;28.4404296875;79.89198735706753
61740;BME280;47645;45.288;12.038;2023-07-29T08:44:49;1012.8107266354344;;;29.1541015625;74.92612267543588
61740;BME280;47645;45.288;12.038;2023-07-29T08:54:51;1012.8194484392733;;;29.32734375;72.16146607445772
61740;BME280;47645;45.288;12.038;2023-07-29T09:04:52;1012.8352863753372;;;30.02578125;70.63947348338887
61740;BME280;47645;45.288;12.038;2023-07-29T09:14:55;1012.896475114026;;;30.535546875;66.71749066044256
61740;BME280;47645;45.288;12.038;2023-07-29T09:24:57;1012.902201407783;;;30.6884765625;67.61708497077949
61740;BME280;47645;45.288;12.038;2023-07-29T09:34:57;1012.7826132859275;;;29.9953125;67.0829310993773
61740;BME280;47645;45.288;12.038;2023-07-29T09:44:59;1012.8031500727901;;;30.44375;66.28655405973572
61740;BME280;47645;45.288;12.038;2023-07-29T09:55:01;1012.7779427802906;;;31.2951171875;68.14134850794902
61740;BME280;47645;45.288;12.038;2023-07-29T10:05:06;1012.7102516714405;;;32.2025390625;63.88243576140076
61740;BME280;47645;45.288;12.038;2023-07-29T10:15:06;1012.7188683136727;;;32.7123046875;57.33128816486921
61740;BME280;47645;45.288;12.038;2023-07-29T10:20:08;1012.7363085717786;;;33.3037109375;53.95110490574285
61740;BME280;47645;45.288;12.038;2023-07-29T10:30:09;1012.6810848423936;;;33.3955078125;56.695428646864
61740;BME280;47645;45.288;12.038;2023-07-29T10:40:11;1012.745568913102;;;33.2783203125;55.79163167319026
61740;BME280;47645;45.288;12.038;2023-07-29T10:50:17;1012.7028752029831;;;33.1150390625;56.562634339575645
61740;BME280;47645;45.288;12.038;2023-07-29T11:00:15;1012.5476097586293;;;33.8033203125;54.73544208078167
61740;BME280;47645;45.288;12.038;2023-07-29T11:10:15;1012.5969056127152;;;33.528125;55.23992569199212
61740;BME280;47645;45.288;12.038;2023-07-29T11:20:18;1012.4547213991559;;;32.8193359375;56.66509332368111
61740;BME280;47645;45.288;12.038;2023-07-29T11:30:19;1012.3427915633434;;;33.0744140625;55.59759069439838
61740;BME280;47645;45.288;12.038;2023-07-29T11:40:21;1012.2075511720192;;;34.746484375;53.21415645315584
61740;BME280;47645;45.288;12.038;2023-07-29T11:50:22;1012.2248325472442;;;35.842578125;49.905286551352724
61740;BME280;47645;45.288;12.038;2023-07-29T12:00:25;1012.1945259794672;;;36.821484375;45.856558262648484
61740;BME280;47645;45.288;12.038;2023-07-29T12:10:26;1012.1523494596486;;;37.152734375;46.36422955443778
61740;BME280;47645;45.288;12.038;2023-07-29T12:20:29;1012.1771083641798;;;35.8935546875;49.3193777684231
61740;BME280;47645;45.288;12.038;2023-07-29T12:30:30;1012.1524402129911;;;35.7201171875;49.802587233433606
61740;BME280;47645;45.288;12.038;2023-07-29T12:40:37;1011.9755402356783;;;36.8826171875;48.109642892643194
61740;BME280;47645;45.288;12.038;2023-07-29T12:50:34;1011.911233893313;;;37.055859375;45.08471966504235
61740;BME280;47645;45.288;12.038;2023-07-29T13:00:36;1011.862928676341;;;37.3822265625;42.656289509717666
61740;BME280;47645;45.288;12.038;2023-07-29T13:10:38;1011.6966554043969;;;38.4783203125;42.35657440279468
61740;BME280;47645;45.288;12.038;2023-07-29T13:20:40;1011.5278839674886;;;38.5037109375;42.22510234986668
61740;BME280;47645;45.288;12.038;2023-07-29T13:30:42;1011.3954652248151;;;38.733203125;42.9894364298796
61740;BME280;47645;45.288;12.038;2023-07-29T13:40:44;1011.3662719740058;;;38.6619140625;44.160127073915305
61740;BME280;47645;45.288;12.038;2023-07-29T13:50:46;1011.3646698595105;;;39.0951171875;43.52728409674279
61740;BME280;47645;45.288;12.038;2023-07-29T14:00:48;1011.2985752866276;;;39.2837890625;42.97707465104157
61740;BME280;47645;45.288;12.038;2023-07-29T14:10:51;1011.2588598240965;;;38.636328125;44.18991321435144
61740;BME280;47645;45.288;12.038;2023-07-29T14:20:53;1011.169479591426;;;39.207421875;43.353909026461906
61740;BME280;47645;45.288;12.038;2023-07-29T14:30:55;1011.1361792985955;;;39.0646484375;43.50933968086035
61740;BME280;47645;45.288;12.038;2023-07-29T14:40:57;1010.9999876298509;;;39.0544921875;43.7125650914163
61740;BME280;47645;45.288;12.038;2023-07-29T14:50:59;1010.9936142909713;;;38.819921875;44.09471074244943
61740;BME280;47645;45.288;12.038;2023-07-29T15:01:01;1011.0180011317067;;;38.42734375;45.18606138263404
61740;BME280;47645;45.288;12.038;2023-07-29T15:11:03;1010.9066066018615;;;38.6619140625;43.66444408973588
61740;BME280;47645;45.288;12.038;2023-07-29T15:21:06;1010.800713019574;;;37.234375;47.04888471116807
61740;BME280;47645;45.288;12.038;2023-07-29T15:31:08;1010.6029327466231;;;36.9845703125;48.36027342032294
61740;BME280;47645;45.288;12.038;2023-07-29T15:41:10;1010.4791272576691;;;36.6787109375;49.06927738982652
61740;BME280;47645;45.288;12.038;2023-07-29T15:51:12;1010.424938703672;;;36.2044921875;48.78400155697362
61740;BME280;47645;45.288;12.038;2023-07-29T16:01:15;1010.3520401919126;;;35.6130859375;51.80197354277142
61740;BME280;47645;45.288;12.038;2023-07-29T16:11:17;1010.2383065229275;;;35.1849609375;53.56716789154784
61740;BME280;47645;45.288;12.038;2023-07-29T16:21:18;1010.2331444424761;;;34.5884765625;54.544180561022564
61740;BME280;47645;45.288;12.038;2023-07-29T16:31:20;1010.1896491264165;;;34.9453125;53.31319468472672
61740;BME280;47645;45.288;12.038;2023-07-29T16:41:22;1010.233835119981;;;34.52734375;55.50398152377292
61740;BME280;47645;45.288;12.038;2023-07-29T16:51:24;1010.3499350559449;;;34.573046875;55.00960982982593
61740;BME280;47645;45.288;12.038;2023-07-29T17:01:26;1010.2662428213993;;;34.3232421875;54.27139799291182
61740;BME280;47645;45.288;12.038;2023-07-29T17:11:28;1010.2300298524175;;;33.874609375;56.73963303184603
61740;BME280;47645;45.288;12.038;2023-07-29T17:21:30;1010.0172241245564;;;33.5177734375;56.946048872725726
61740;BME280;47645;45.288;12.038;2023-07-29T17:31:32;1010.0228737994033;;;33.2068359375;58.08808293630567
61740;BME280;47645;45.288;12.038;2023-07-29T17:41:34;1010.0183649483023;;;32.8142578125;59.307431862478715
61740;BME280;47645;45.288;12.038;2023-07-29T17:51:36;1010.2287452684329;;;32.14140625;61.3036861410266
61740;BME280;47645;45.288;12.038;2023-07-29T18:01:38;1010.4470899853421;;;31.7029296875;60.629222761373576
61740;BME280;47645;45.288;12.038;2023-07-29T18:11:42;1010.3409231831771;;;31.3001953125;61.48971134950566
61740;BME280;47645;45.288;12.038;2023-07-29T18:21:42;1010.3219640974183;;;30.82109375;64.53414578545289
61740;BME280;47645;45.288;12.038;2023-07-29T18:31:44;1010.3473602764345;;;30.4234375;63.94868826635314
61740;BME280;47645;45.288;12.038;2023-07-29T18:41:46;1010.4943667139153;;;30.0513671875;66.14885974418578
61740;BME280;47645;45.288;12.038;2023-07-29T18:51:47;1010.5259610838059;;;29.7607421875;67.48303156769228
61740;BME280;47645;45.288;12.038;2023-07-29T19:01:49;1010.6148495357215;;;29.5619140625;68.05879108072918
61740;BME280;47645;45.288;12.038;2023-07-29T19:11:51;1010.5158695721054;;;29.312109375;69.30393893179179
61740;BME280;47645;45.288;12.038;2023-07-29T19:21:53;1010.5523892551213;;;29.0318359375;70.42400290745884
61740;BME280;47645;45.288;12.038;2023-07-29T19:31:55;1010.7386092616341;;;28.797265625;68.99451603559663
61740;BME280;47645;45.288;12.038;2023-07-29T19:41:56;1010.8896162956761;;;28.5626953125;71.20625599599349
61740;BME280;47645;45.288;12.038;2023-07-29T19:52:01;1010.9625821578529;;;28.3638671875;71.92792847011759
61740;BME280;47645;45.288;12.038;2023-07-29T20:02:00;1010.8918808263296;;;28.185546875;72.35608078480772
61740;BME280;47645;45.288;12.038;2023-07-29T20:12:02;1010.8592143940192;;;28.0173828125;72.76646108620598
61740;BME280;47645;45.288;12.038;2023-07-29T20:22:04;1010.8838400741442;;;27.8134765625;72.4461586548696
61740;BME280;47645;45.288;12.038;2023-07-29T20:32:05;1010.8695660833941;;;27.573828125;74.04707441328235
61740;BME280;47645;45.288;12.038;2023-07-29T20:42:07;1010.7363548217977;;;27.4208984375;74.49825953102705
61740;BME280;47645;45.288;12.038;2023-07-29T20:52:09;1010.670289422111;;;27.349609375;74.7242707179784
61740;BME280;47645;45.288;12.038;2023-07-29T21:02:11;1010.7435264764698;;;27.1150390625;75.66368204831684
61740;BME280;47645;45.288;12.038;2023-07-29T21:12:12;1010.6866811223372;;;27.0333984375;75.7493117116687
61740;BME280;47645;45.288;12.038;2023-07-29T21:22:14;1010.6513333081588;;;26.9314453125;76.09393404996494
61740;BME280;47645;45.288;12.038;2023-07-29T21:32:15;1010.7004335301343;;;26.8041015625;77.06405050559559
61740;BME280;47645;45.288;12.038;2023-07-29T21:42:17;1010.8117955580836;;;26.574609375;77.1086715590274
61740;BME280;47645;45.288;12.038;2023-07-29T21:52:18;1010.8482424973831;;;26.554296875;77.1008820038583
61740;BME280;47645;45.288;12.038;2023-07-29T22:02:20;1010.8900569491257;;;26.447265625;77.15110561794783
61740;BME280;47645;45.288;12.038;2023-07-29T22:12:23;1010.6886002265336;;;26.2892578125;81.00830087725701
61740;BME280;47645;45.288;12.038;2023-07-29T22:22:23;1010.7345488547745;;;26.2484375;77.76149289045273
61740;BME280;47645;45.288;12.038;2023-07-29T22:32:25;1010.7792367993735;;;26.166796875;77.86986675351831
61740;BME280;47645;45.288;12.038;2023-07-29T22:42:26;1010.629764108063;;;26.0853515625;78.4957273663648
61740;BME280;47645;45.288;12.038;2023-07-29T22:52:28;1010.441075841874;;;26.029296875;81.26094761102082
61740;BME280;47645;45.288;12.038;2023-07-29T23:02:29;1010.2016568578327;;;25.932421875;78.54620171714964
61740;BME280;47645;45.288;12.038;2023-07-29T23:12:31;1010.1619473029683;;;25.825390625;79.77203964659819
61740;BME280;47645;45.288;12.038;2023-07-29T23:22:32;1010.1479298616479;;;25.544921875;80.82688988514974
61740;BME280;47645;45.288;12.038;2023-07-29T23:32:34;1010.1070517576118;;;25.544921875;81.59005637534902
61740;BME280;47645;45.288;12.038;2023-07-29T23:42:37;1010.3147692040125;;;25.65703125;79.26366663501533
61740;BME280;47645;45.288;12.038;2023-07-29T23:52:37;1010.3654302917093;;;25.448046875;80.99131132613543
